sensor_id;sensor_type;location;lat;lon;timestamp;pressure;altitude;pressure_sealevel;temperature;humidity
2339;BME280;1180;51.438;6.978;2024-01-25T00:01:12;101385.41;;;11.55;80.63
2339;BME280;1180;51.438;6.978;2024-01-25T00:03:37;101387.28;;;11.71;80.34
2339;BME280;1180;51.438;6.978;2024-01-25T00:06:04;101380.41;;;11.72;80.03
2339;BME280;1180;51.438;6.978;2024-01-25T00:08:30;101389.94;;;11.69;79.75
2339;BME280;1180;51.438;6.978;2024-01-25T00:10:56;101384.06;;;11.85;79.52
2339;BME280;1180;51.438;6.978;2024-01-25T00:13:21;101393.03;;;11.76;79.45
2339;BME280;1180;51.438;6.978;2024-01-25T00:15:46;101393.94;;;11.75;80.01
2339;BME280;1180;51.438;6.978;2024-01-25T00:18:12;101393.53;;;11.84;79.14
2339;BME280;1180;51.438;6.978;2024-01-25T00:20:37;101398.75;;;11.83;79.19
2339;BME280;1180;51.438;6.978;2024-01-25T00:23:02;101398.81;;;11.81;79.56
2339;BME280;1180;51.438;6.978;2024-01-25T00:25:28;101396.13;;;11.84;79.33
2339;BME280;1180;51.438;6.978;2024-01-25T00:27:53;101397.44;;;11.93;78.73
2339;BME280;1180;51.438;6.978;2024-01-25T00:30:19;101395.13;;;11.87;78.59
2339;BME280;1180;51.438;6.978;2024-01-25T00:32:44;101394.84;;;11.74;80.02
2339;BME280;1180;51.438;6.978;2024-01-25T00:35:10;101407.22;;;11.85;79.21
2339;BME280;1180;51.438;6.978;2024-01-25T00:37:36;101413.56;;;11.78;79.42
2339;BME280;1180;51.438;6.978;2024-01-25T00:40:02;101408.69;;;11.72;79.77
2339;BME280;1180;51.438;6.978;2024-01-25T00:42:28;101403.56;;;11.72;80.45
2339;BME280;1180;51.438;6.978;2024-01-25T00:44:55;101397.09;;;11.63;80.40
2339;BME280;1180;51.438;6.978;2024-01-25T00:47:21;101400.66;;;11.60;81.01
2339;BME280;1180;51.438;6.978;2024-01-25T00:49:47;101395.69;;;11.75;80.24
2339;BME280;1180;51.438;6.978;2024-01-25T00:52:13;101382.53;;;11.81;79.39
2339;BME280;1180;51.438;6.978;2024-01-25T00:54:38;101387.97;;;11.75;79.59
2339;BME280;1180;51.438;6.978;2024-01-25T00:57:04;101396.59;;;11.74;79.77
2339;BME280;1180;51.438;6.978;2024-01-25T00:59:30;101400.97;;;11.72;79.69
2339;BME280;1180;51.438;6.978;2024-01-25T01:01:58;101388.13;;;11.72;79.57
2339;BME280;1180;51.438;6.978;2024-01-25T01:04:24;101397.66;;;11.69;79.92
2339;BME280;1180;51.438;6.978;2024-01-25T01:06:50;101396.50;;;11.75;79.76
2339;BME280;1180;51.438;6.978;2024-01-25T01:09:16;101400.97;;;11.72;79.77
2339;BME280;1180;51.438;6.978;2024-01-25T01:11:42;101399.47;;;11.67;79.67
2339;BME280;1180;51.438;6.978;2024-01-25T01:14:08;101406.47;;;11.64;79.77
2339;BME280;1180;51.438;6.978;2024-01-25T01:16:33;101395.63;;;11.57;80.24
2339;BME280;1180;51.438;6.978;2024-01-25T01:19:01;101397.38;;;11.56;80.13
2339;BME280;1180;51.438;6.978;2024-01-25T01:21:31;101392.94;;;11.60;80.04
2339;BME280;1180;51.438;6.978;2024-01-25T01:23:57;101401.66;;;11.56;80.27
2339;BME280;1180;51.438;6.978;2024-01-25T01:26:22;101408.84;;;11.49;80.21
2339;BME280;1180;51.438;6.978;2024-01-25T01:28:47;101421.81;;;11.46;80.44
2339;BME280;1180;51.438;6.978;2024-01-25T01:31:13;101418.59;;;11.41;80.63
2339;BME280;1180;51.438;6.978;2024-01-25T01:33:38;101420.69;;;11.33;80.63
2339;BME280;1180;51.438;6.978;2024-01-25T01:36:04;101413.94;;;11.30;81.31
2339;BME280;1180;51.438;6.978;2024-01-25T01:38:29;101426.94;;;11.27;81.72
2339;BME280;1180;51.438;6.978;2024-01-25T01:40:54;101431.03;;;11.31;81.44
2339;BME280;1180;51.438;6.978;2024-01-25T01:43:20;101431.94;;;11.30;81.39
2339;BME280;1180;51.438;6.978;2024-01-25T01:45:45;101434.75;;;11.24;81.44
2339;BME280;1180;51.438;6.978;2024-01-25T01:48:11;101429.28;;;11.32;81.53
2339;BME280;1180;51.438;6.978;2024-01-25T01:50:37;101440.28;;;11.35;81.26
2339;BME280;1180;51.438;6.978;2024-01-25T01:53:03;101440.97;;;11.39;81.17
2339;BME280;1180;51.438;6.978;2024-01-25T01:55:30;101435.34;;;11.31;81.37
2339;BME280;1180;51.438;6.978;2024-01-25T01:57:56;101444.03;;;11.28;81.78
2339;BME280;1180;51.438;6.978;2024-01-25T02:00:21;101444.78;;;11.30;81.57
2339;BME280;1180;51.438;6.978;2024-01-25T02:02:47;101440.56;;;11.29;81.63
2339;BME280;1180;51.438;6.978;2024-01-25T02:05:13;101446.84;;;11.22;81.89
2339;BME280;1180;51.438;6.978;2024-01-25T02:07:39;101445.69;;;11.29;81.69
2339;BME280;1180;51.438;6.978;2024-01-25T02:10:06;101440.97;;;11.39;81.12
2339;BME280;1180;51.438;6.978;2024-01-25T02:12:31;101454.16;;;11.31;81.21
2339;BME280;1180;51.438;6.978;2024-01-25T02:14:57;101456.34;;;11.20;81.37
2339;BME280;1180;51.438;6.978;2024-01-25T02:17:22;101460.53;;;11.22;81.27
2339;BME280;1180;51.438;6.978;2024-01-25T02:19:48;101454.66;;;11.19;81.54
2339;BME280;1180;51.438;6.978;2024-01-25T02:22:18;101462.19;;;11.23;81.58
2339;BME280;1180;51.438;6.978;2024-01-25T02:24:44;101462.84;;;11.29;81.00
2339;BME280;1180;51.438;6.978;2024-01-25T02:27:09;101459.69;;;11.22;81.43
2339;BME280;1180;51.438;6.978;2024-01-25T02:29:34;101472.41;;;11.25;81.66
2339;BME280;1180;51.438;6.978;2024-01-25T02:32:00;101475.09;;;11.22;81.49
2339;BME280;1180;51.438;6.978;2024-01-25T02:34:25;101474.66;;;11.12;81.59
2339;BME280;1180;51.438;6.978;2024-01-25T02:36:50;101475.50;;;11.12;81.36
2339;BME280;1180;51.438;6.978;2024-01-25T02:39:16;101479.00;;;11.10;81.64
2339;BME280;1180;51.438;6.978;2024-01-25T02:41:41;101481.78;;;11.05;82.07
2339;BME280;1180;51.438;6.978;2024-01-25T02:44:06;101472.41;;;11.04;81.70
2339;BME280;1180;51.438;6.978;2024-01-25T02:46:32;101466.44;;;11.04;81.77
2339;BME280;1180;51.438;6.978;2024-01-25T02:48:57;101466.16;;;11.10;81.33
2339;BME280;1180;51.438;6.978;2024-01-25T02:51:23;101477.56;;;11.04;81.49
2339;BME280;1180;51.438;6.978;2024-01-25T02:53:48;101475.16;;;11.00;81.58
2339;BME280;1180;51.438;6.978;2024-01-25T02:56:14;101475.16;;;11.00;81.40
2339;BME280;1180;51.438;6.978;2024-01-25T02:58:39;101480.31;;;11.00;81.27
2339;BME280;1180;51.438;6.978;2024-01-25T03:01:04;101477.69;;;11.01;80.86
2339;BME280;1180;51.438;6.978;2024-01-25T03:03:29;101486.53;;;10.94;81.29
2339;BME280;1180;51.438;6.978;2024-01-25T03:05:55;101487.78;;;10.83;81.58
2339;BME280;1180;51.438;6.978;2024-01-25T03:08:20;101485.09;;;10.87;81.99
2339;BME280;1180;51.438;6.978;2024-01-25T03:10:46;101481.59;;;10.89;81.86
2339;BME280;1180;51.438;6.978;2024-01-25T03:13:15;101492.16;;;10.81;81.91
2339;BME280;1180;51.438;6.978;2024-01-25T03:15:42;101499.25;;;10.75;81.94
2339;BME280;1180;51.438;6.978;2024-01-25T03:18:07;101498.44;;;10.74;82.21
2339;BME280;1180;51.438;6.978;2024-01-25T03:20:32;101498.31;;;10.77;81.98
2339;BME280;1180;51.438;6.978;2024-01-25T03:22:58;101496.59;;;10.78;81.72
2339;BME280;1180;51.438;6.978;2024-01-25T03:25:23;101494.97;;;10.75;81.92
2339;BME280;1180;51.438;6.978;2024-01-25T03:27:48;101500.38;;;10.69;82.03
2339;BME280;1180;51.438;6.978;2024-01-25T03:30:14;101499.72;;;10.64;82.52
2339;BME280;1180;51.438;6.978;2024-01-25T03:32:39;101507.22;;;10.68;81.91
2339;BME280;1180;51.438;6.978;2024-01-25T03:35:05;101512.59;;;10.62;81.96
2339;BME280;1180;51.438;6.978;2024-01-25T03:37:30;101517.25;;;10.52;83.00
2339;BME280;1180;51.438;6.978;2024-01-25T03:39:56;101499.41;;;10.49;82.79
2339;BME280;1180;51.438;6.978;2024-01-25T03:42:21;101500.31;;;10.48;83.01
2339;BME280;1180;51.438;6.978;2024-01-25T03:44:46;101496.31;;;10.41;83.33
2339;BME280;1180;51.438;6.978;2024-01-25T03:47:12;101505.75;;;10.39;83.56
2339;BME280;1180;51.438;6.978;2024-01-25T03:49:37;101507.47;;;10.40;83.70
2339;BME280;1180;51.438;6.978;2024-01-25T03:52:04;101510.72;;;10.44;83.27
2339;BME280;1180;51.438;6.978;2024-01-25T03:54:30;101503.63;;;10.50;82.99
2339;BME280;1180;51.438;6.978;2024-01-25T03:56:55;101508.06;;;10.47;82.92
2339;BME280;1180;51.438;6.978;2024-01-25T03:59:21;101511.47;;;10.47;82.21
2339;BME280;1180;51.438;6.978;2024-01-25T04:01:46;101520.00;;;10.48;82.55
2339;BME280;1180;51.438;6.978;2024-01-25T04:04:13;101516.28;;;10.33;82.77
2339;BME280;1180;51.438;6.978;2024-01-25T04:06:44;101516.03;;;10.39;83.06
2339;BME280;1180;51.438;6.978;2024-01-25T04:09:11;101516.47;;;10.26;83.28
2339;BME280;1180;51.438;6.978;2024-01-25T04:11:37;101511.34;;;10.26;83.17
2339;BME280;1180;51.438;6.978;2024-01-25T04:14:03;101517.09;;;10.33;83.19
2339;BME280;1180;51.438;6.978;2024-01-25T04:16:28;101516.59;;;10.23;83.46
2339;BME280;1180;51.438;6.978;2024-01-25T04:18:53;101509.91;;;10.19;83.54
2339;BME280;1180;51.438;6.978;2024-01-25T04:21:19;101513.13;;;10.24;83.30
2339;BME280;1180;51.438;6.978;2024-01-25T04:23:44;101510.75;;;10.20;83.18
2339;BME280;1180;51.438;6.978;2024-01-25T04:26:09;101514.50;;;10.11;83.84
2339;BME280;1180;51.438;6.978;2024-01-25T04:28:35;101519.75;;;10.08;83.79
2339;BME280;1180;51.438;6.978;2024-01-25T04:31:02;101528.25;;;10.08;84.08
2339;BME280;1180;51.438;6.978;2024-01-25T04:33:28;101527.53;;;10.05;84.20
2339;BME280;1180;51.438;6.978;2024-01-25T04:35:53;101524.34;;;9.98;84.25
2339;BME280;1180;51.438;6.978;2024-01-25T04:38:18;101527.03;;;9.95;84.75
2339;BME280;1180;51.438;6.978;2024-01-25T04:40:44;101532.00;;;10.00;84.51
2339;BME280;1180;51.438;6.978;2024-01-25T04:43:09;101533.50;;;10.05;84.21
2339;BME280;1180;51.438;6.978;2024-01-25T04:45:36;101526.59;;;10.07;83.99
2339;BME280;1180;51.438;6.978;2024-01-25T04:48:02;101529.66;;;9.93;84.12
2339;BME280;1180;51.438;6.978;2024-01-25T04:50:27;101533.28;;;9.88;85.00
2339;BME280;1180;51.438;6.978;2024-01-25T04:52:53;101537.41;;;9.92;84.50
2339;BME280;1180;51.438;6.978;2024-01-25T04:55:18;101534.19;;;9.87;84.86
2339;BME280;1180;51.438;6.978;2024-01-25T04:57:45;101539.84;;;9.95;84.62
2339;BME280;1180;51.438;6.978;2024-01-25T05:00:11;101537.41;;;9.92;84.29
2339;BME280;1180;51.438;6.978;2024-01-25T05:02:36;101533.41;;;9.85;84.85
2339;BME280;1180;51.438;6.978;2024-01-25T05:05:02;101536.78;;;9.85;84.70
2339;BME280;1180;51.438;6.978;2024-01-25T05:07:27;101533.44;;;9.83;84.38
2339;BME280;1180;51.438;6.978;2024-01-25T05:09:53;101533.56;;;9.80;85.23
2339;BME280;1180;51.438;6.978;2024-01-25T05:12:18;101535.44;;;9.75;85.26
2339;BME280;1180;51.438;6.978;2024-01-25T05:14:44;101527.53;;;9.81;84.62
2339;BME280;1180;51.438;6.978;2024-01-25T05:17:09;101516.97;;;9.65;85.15
2339;BME280;1180;51.438;6.978;2024-01-25T05:19:34;101525.56;;;9.64;85.52
2339;BME280;1180;51.438;6.978;2024-01-25T05:22:00;101530.44;;;9.72;85.68
2339;BME280;1180;51.438;6.978;2024-01-25T05:24:27;101525.06;;;9.78;84.66
2339;BME280;1180;51.438;6.978;2024-01-25T05:26:52;101526.84;;;9.76;84.66
2339;BME280;1180;51.438;6.978;2024-01-25T05:29:17;101525.41;;;9.68;84.83
2339;BME280;1180;51.438;6.978;2024-01-25T05:31:43;101524.22;;;9.53;85.86
2339;BME280;1180;51.438;6.978;2024-01-25T05:34:08;101524.94;;;9.57;86.05
2339;BME280;1180;51.438;6.978;2024-01-25T05:36:34;101531.53;;;9.64;85.79
2339;BME280;1180;51.438;6.978;2024-01-25T05:38:59;101520.50;;;9.62;85.42
2339;BME280;1180;51.438;6.978;2024-01-25T05:41:24;101530.94;;;9.56;85.90
2339;BME280;1180;51.438;6.978;2024-01-25T05:43:50;101529.16;;;9.58;86.04
2339;BME280;1180;51.438;6.978;2024-01-25T05:46:15;101526.78;;;9.53;86.39
2339;BME280;1180;51.438;6.978;2024-01-25T05:48:40;101531.13;;;9.51;86.20
2339;BME280;1180;51.438;6.978;2024-01-25T05:51:06;101528.78;;;9.45;86.06
2339;BME280;1180;51.438;6.978;2024-01-25T05:53:31;101525.34;;;9.45;87.01
2339;BME280;1180;51.438;6.978;2024-01-25T05:55:57;101522.78;;;9.45;86.95
2339;BME280;1180;51.438;6.978;2024-01-25T05:58:22;101529.75;;;9.41;86.93
2339;BME280;1180;51.438;6.978;2024-01-25T06:00:48;101534.03;;;9.41;86.66
2339;BME280;1180;51.438;6.978;2024-01-25T06:03:13;101534.63;;;9.49;86.76
2339;BME280;1180;51.438;6.978;2024-01-25T06:05:38;101541.06;;;9.35;86.76
2339;BME280;1180;51.438;6.978;2024-01-25T06:08:04;101548.84;;;9.32;86.79
2339;BME280;1180;51.438;6.978;2024-01-25T06:10:30;101544.72;;;9.28;87.33
2339;BME280;1180;51.438;6.978;2024-01-25T06:12:55;101552.28;;;9.31;87.53
2339;BME280;1180;51.438;6.978;2024-01-25T06:15:20;101544.41;;;9.37;87.39
2339;BME280;1180;51.438;6.978;2024-01-25T06:17:46;101546.09;;;9.37;87.12
2339;BME280;1180;51.438;6.978;2024-01-25T06:20:11;101553.19;;;9.30;87.28
2339;BME280;1180;51.438;6.978;2024-01-25T06:22:37;101541.59;;;9.18;87.93
2339;BME280;1180;51.438;6.978;2024-01-25T06:25:02;101544.88;;;9.22;87.95
2339;BME280;1180;51.438;6.978;2024-01-25T06:27:31;101550.09;;;9.19;88.15
2339;BME280;1180;51.438;6.978;2024-01-25T06:29:56;101546.03;;;9.13;88.22
2339;BME280;1180;51.438;6.978;2024-01-25T06:32:21;101546.84;;;9.15;88.28
2339;BME280;1180;51.438;6.978;2024-01-25T06:34:47;101552.00;;;9.14;88.25
2339;BME280;1180;51.438;6.978;2024-01-25T06:37:12;101555.28;;;9.17;87.65
2339;BME280;1180;51.438;6.978;2024-01-25T06:39:40;101556.78;;;9.24;87.53
2339;BME280;1180;51.438;6.978;2024-01-25T06:42:06;101560.13;;;9.27;87.14
2339;BME280;1180;51.438;6.978;2024-01-25T06:44:31;101563.00;;;9.16;87.31
2339;BME280;1180;51.438;6.978;2024-01-25T06:46:56;101564.03;;;9.10;88.20
2339;BME280;1180;51.438;6.978;2024-01-25T06:49:22;101574.47;;;9.04;88.29
2339;BME280;1180;51.438;6.978;2024-01-25T06:51:47;101572.19;;;8.96;88.97
2339;BME280;1180;51.438;6.978;2024-01-25T06:54:12;101582.16;;;9.04;89.05
2339;BME280;1180;51.438;6.978;2024-01-25T06:56:38;101581.25;;;9.06;88.69
2339;BME280;1180;51.438;6.978;2024-01-25T06:59:03;101584.81;;;9.01;88.56
2339;BME280;1180;51.438;6.978;2024-01-25T07:01:29;101591.72;;;8.99;89.09
2339;BME280;1180;51.438;6.978;2024-01-25T07:03:55;101587.44;;;8.99;89.42
2339;BME280;1180;51.438;6.978;2024-01-25T07:06:21;101588.25;;;9.01;89.23
2339;BME280;1180;51.438;6.978;2024-01-25T07:08:46;101589.22;;;8.97;89.19
2339;BME280;1180;51.438;6.978;2024-01-25T07:11:12;101598.75;;;8.92;89.36
2339;BME280;1180;51.438;6.978;2024-01-25T07:13:37;101601.97;;;8.99;89.16
2339;BME280;1180;51.438;6.978;2024-01-25T07:16:03;101599.31;;;9.02;89.27
2339;BME280;1180;51.438;6.978;2024-01-25T07:18:28;101587.34;;;9.02;89.00
2339;BME280;1180;51.438;6.978;2024-01-25T07:20:54;101596.13;;;8.95;90.16
2339;BME280;1180;51.438;6.978;2024-01-25T07:23:21;101596.19;;;8.92;89.83
2339;BME280;1180;51.438;6.978;2024-01-25T07:25:46;101599.69;;;8.89;90.15
2339;BME280;1180;51.438;6.978;2024-01-25T07:28:12;101600.25;;;8.99;89.26
2339;BME280;1180;51.438;6.978;2024-01-25T07:30:37;101600.41;;;8.93;89.60
2339;BME280;1180;51.438;6.978;2024-01-25T07:33:03;101604.53;;;8.99;89.02
2339;BME280;1180;51.438;6.978;2024-01-25T07:35:28;101600.97;;;9.03;88.61
2339;BME280;1180;51.438;6.978;2024-01-25T07:37:53;101598.06;;;8.87;89.49
2339;BME280;1180;51.438;6.978;2024-01-25T07:40:19;101597.16;;;8.88;89.68
2339;BME280;1180;51.438;6.978;2024-01-25T07:42:46;101597.16;;;8.88;90.06
2339;BME280;1180;51.438;6.978;2024-01-25T07:45:12;101602.25;;;8.89;89.58
2339;BME280;1180;51.438;6.978;2024-01-25T07:47:41;101609.97;;;8.88;89.86
2339;BME280;1180;51.438;6.978;2024-01-25T07:50:06;101609.97;;;8.88;89.99
2339;BME280;1180;51.438;6.978;2024-01-25T07:52:32;101610.59;;;8.96;89.67
2339;BME280;1180;51.438;6.978;2024-01-25T07:54:57;101612.59;;;8.86;90.06
2339;BME280;1180;51.438;6.978;2024-01-25T07:57:22;101615.97;;;8.87;90.01
2339;BME280;1180;51.438;6.978;2024-01-25T07:59:48;101626.22;;;8.87;90.43
2339;BME280;1180;51.438;6.978;2024-01-25T08:02:13;101625.22;;;8.91;90.36
2339;BME280;1180;51.438;6.978;2024-01-25T08:04:39;101628.31;;;9.02;89.26
2339;BME280;1180;51.438;6.978;2024-01-25T08:07:04;101623.22;;;9.01;89.61
2339;BME280;1180;51.438;6.978;2024-01-25T08:09:29;101634.75;;;8.87;89.91
2339;BME280;1180;51.438;6.978;2024-01-25T08:11:55;101632.38;;;8.81;90.60
2339;BME280;1180;51.438;6.978;2024-01-25T08:14:20;101628.97;;;8.80;91.16
2339;BME280;1180;51.438;6.978;2024-01-25T08:16:46;101633.88;;;8.87;91.26
2339;BME280;1180;51.438;6.978;2024-01-25T08:19:11;101629.41;;;8.95;90.99
2339;BME280;1180;51.438;6.978;2024-01-25T08:21:36;101632.13;;;8.89;91.17
2339;BME280;1180;51.438;6.978;2024-01-25T08:24:02;101632.97;;;8.89;91.09
2339;BME280;1180;51.438;6.978;2024-01-25T08:26:27;101637.22;;;8.90;91.12
2339;BME280;1180;51.438;6.978;2024-01-25T08:28:53;101632.31;;;8.82;91.63
2339;BME280;1180;51.438;6.978;2024-01-25T08:31:18;101630.25;;;8.94;91.71
2339;BME280;1180;51.438;6.978;2024-01-25T08:33:43;101631.00;;;8.98;91.10
2339;BME280;1180;51.438;6.978;2024-01-25T08:36:21;101629.47;;;8.92;91.75
2339;BME280;1180;51.438;6.978;2024-01-25T08:38:47;101626.97;;;8.90;92.49
2339;BME280;1180;51.438;6.978;2024-01-25T08:41:13;101625.94;;;8.96;92.69
2339;BME280;1180;51.438;6.978;2024-01-25T08:43:40;101622.44;;;8.99;92.54
2339;BME280;1180;51.438;6.978;2024-01-25T08:46:05;101622.16;;;9.08;92.36
2339;BME280;1180;51.438;6.978;2024-01-25T08:48:31;101625.97;;;9.23;91.80
2339;BME280;1180;51.438;6.978;2024-01-25T08:50:56;101624.50;;;9.16;91.61
2339;BME280;1180;51.438;6.978;2024-01-25T08:53:22;101622.72;;;9.18;91.85
2339;BME280;1180;51.438;6.978;2024-01-25T08:55:52;101624.16;;;9.27;91.58
2339;BME280;1180;51.438;6.978;2024-01-25T08:58:17;101621.03;;;9.17;92.11
2339;BME280;1180;51.438;6.978;2024-01-25T09:00:42;101622.00;;;9.14;92.63
2339;BME280;1180;51.438;6.978;2024-01-25T09:03:08;101614.44;;;9.09;93.11
2339;BME280;1180;51.438;6.978;2024-01-25T09:05:33;101621.09;;;9.15;93.52
2339;BME280;1180;51.438;6.978;2024-01-25T09:08:03;101617.38;;;9.24;93.37
2339;BME280;1180;51.438;6.978;2024-01-25T09:10:28;101608.75;;;9.28;92.73
2339;BME280;1180;51.438;6.978;2024-01-25T09:12:54;101612.53;;;9.16;93.02
2339;BME280;1180;51.438;6.978;2024-01-25T09:15:19;101603.69;;;9.25;93.09
2339;BME280;1180;51.438;6.978;2024-01-25T09:17:44;101612.88;;;9.32;92.81
2339;BME280;1180;51.438;6.978;2024-01-25T09:20:10;101615.44;;;9.32;92.92
2339;BME280;1180;51.438;6.978;2024-01-25T09:22:36;101610.94;;;9.39;93.09
2339;BME280;1180;51.438;6.978;2024-01-25T09:25:01;101616.72;;;9.46;92.93
2339;BME280;1180;51.438;6.978;2024-01-25T09:27:26;101620.06;;;9.48;92.64
2339;BME280;1180;51.438;6.978;2024-01-25T09:29:52;101620.63;;;9.56;92.50
2339;BME280;1180;51.438;6.978;2024-01-25T09:32:17;101620.81;;;9.51;92.04
2339;BME280;1180;51.438;6.978;2024-01-25T09:34:45;101635.41;;;9.49;92.43
2339;BME280;1180;51.438;6.978;2024-01-25T09:37:11;101638.84;;;9.48;92.46
2339;BME280;1180;51.438;6.978;2024-01-25T09:39:36;101656.53;;;9.56;92.81
2339;BME280;1180;51.438;6.978;2024-01-25T09:42:03;101664.06;;;9.61;92.32
2339;BME280;1180;51.438;6.978;2024-01-25T09:44:29;101662.09;;;9.69;92.28
2339;BME280;1180;51.438;6.978;2024-01-25T09:46:54;101658.06;;;9.62;92.55
2339;BME280;1180;51.438;6.978;2024-01-25T09:49:21;101646.09;;;9.62;92.51
2339;BME280;1180;51.438;6.978;2024-01-25T09:51:47;101633.91;;;9.69;92.26
2339;BME280;1180;51.438;6.978;2024-01-25T09:54:16;101644.22;;;9.67;92.48
2339;BME280;1180;51.438;6.978;2024-01-25T09:56:41;101638.31;;;9.65;92.85
2339;BME280;1180;51.438;6.978;2024-01-25T09:59:07;101639.97;;;9.66;92.83
2339;BME280;1180;51.438;6.978;2024-01-25T10:01:34;101647.28;;;9.77;92.33
2339;BME280;1180;51.438;6.978;2024-01-25T10:03:59;101659.06;;;9.83;92.64
2339;BME280;1180;51.438;6.978;2024-01-25T10:06:25;101659.84;;;9.85;92.55
2339;BME280;1180;51.438;6.978;2024-01-25T10:08:53;101654.84;;;9.82;92.15
2339;BME280;1180;51.438;6.978;2024-01-25T10:11:18;101649.66;;;9.83;92.21
2339;BME280;1180;51.438;6.978;2024-01-25T10:13:45;101656.41;;;9.86;92.07
2339;BME280;1180;51.438;6.978;2024-01-25T10:16:12;101652.69;;;9.95;91.96
2339;BME280;1180;51.438;6.978;2024-01-25T10:18:38;101657.69;;;10.00;91.99
2339;BME280;1180;51.438;6.978;2024-01-25T10:21:03;101652.44;;;10.03;92.07
2339;BME280;1180;51.438;6.978;2024-01-25T10:23:28;101669.63;;;10.01;91.56
2339;BME280;1180;51.438;6.978;2024-01-25T10:25:55;101665.09;;;10.07;91.56
2339;BME280;1180;51.438;6.978;2024-01-25T10:28:23;101666.06;;;10.05;91.23
2339;BME280;1180;51.438;6.978;2024-01-25T10:30:50;101661.03;;;10.02;91.36
2339;BME280;1180;51.438;6.978;2024-01-25T10:33:16;101651.47;;;10.05;91.36
2339;BME280;1180;51.438;6.978;2024-01-25T10:35:43;101650.34;;;10.14;91.12
2339;BME280;1180;51.438;6.978;2024-01-25T10:38:10;101647.84;;;10.13;90.70
2339;BME280;1180;51.438;6.978;2024-01-25T10:40:36;101641.81;;;10.14;90.65
2339;BME280;1180;51.438;6.978;2024-01-25T10:43:03;101637.34;;;10.19;90.18
2339;BME280;1180;51.438;6.978;2024-01-25T10:45:28;101638.75;;;10.28;90.70
2339;BME280;1180;51.438;6.978;2024-01-25T10:47:54;101634.00;;;10.42;90.14
2339;BME280;1180;51.438;6.978;2024-01-25T10:50:19;101630.50;;;10.45;90.45
2339;BME280;1180;51.438;6.978;2024-01-25T10:52:46;101620.22;;;10.45;89.78
2339;BME280;1180;51.438;6.978;2024-01-25T10:55:13;101613.22;;;10.48;89.64
2339;BME280;1180;51.438;6.978;2024-01-25T10:57:43;101610.53;;;10.51;89.40
2339;BME280;1180;51.438;6.978;2024-01-25T11:00:10;101610.13;;;10.64;88.97
2339;BME280;1180;51.438;6.978;2024-01-25T11:02:37;101614.56;;;10.59;88.20
2339;BME280;1180;51.438;6.978;2024-01-25T11:05:14;101605.63;;;10.69;88.09
2339;BME280;1180;51.438;6.978;2024-01-25T11:07:49;101612.31;;;10.73;88.05
2339;BME280;1180;51.438;6.978;2024-01-25T11:10:19;101607.09;;;10.75;87.67
2339;BME280;1180;51.438;6.978;2024-01-25T11:12:55;101588.97;;;10.79;86.81
2339;BME280;1180;51.438;6.978;2024-01-25T11:15:22;101595.03;;;10.77;86.86
2339;BME280;1180;51.438;6.978;2024-01-25T11:17:55;101583.84;;;10.79;86.48
2339;BME280;1180;51.438;6.978;2024-01-25T11:20:28;101581.75;;;10.89;86.28
2339;BME280;1180;51.438;6.978;2024-01-25T11:23:06;101580.59;;;10.96;86.18
2339;BME280;1180;51.438;6.978;2024-01-25T11:25:35;101590.75;;;11.00;86.05
2339;BME280;1180;51.438;6.978;2024-01-25T11:28:02;101587.88;;;11.07;85.73
2339;BME280;1180;51.438;6.978;2024-01-25T11:30:30;101583.16;;;11.19;84.86
2339;BME280;1180;51.438;6.978;2024-01-25T11:32:56;101573.19;;;11.11;84.42
2339;BME280;1180;51.438;6.978;2024-01-25T11:35:21;101572.19;;;11.15;84.37
2339;BME280;1180;51.438;6.978;2024-01-25T11:37:48;101569.22;;;11.24;83.75
2339;BME280;1180;51.438;6.978;2024-01-25T11:40:15;101559.13;;;11.20;83.61
2339;BME280;1180;51.438;6.978;2024-01-25T11:42:42;101552.72;;;11.30;83.21
2339;BME280;1180;51.438;6.978;2024-01-25T11:45:09;101548.34;;;11.32;83.08
2339;BME280;1180;51.438;6.978;2024-01-25T11:47:36;101544.44;;;11.44;82.50
2339;BME280;1180;51.438;6.978;2024-01-25T11:50:03;101543.28;;;11.51;82.79
2339;BME280;1180;51.438;6.978;2024-01-25T11:52:28;101539.59;;;11.57;82.24
2339;BME280;1180;51.438;6.978;2024-01-25T11:54:54;101534.13;;;11.65;81.18
2339;BME280;1180;51.438;6.978;2024-01-25T11:57:19;101535.88;;;11.64;80.58
2339;BME280;1180;51.438;6.978;2024-01-25T11:59:45;101539.13;;;11.68;80.53
2339;BME280;1180;51.438;6.978;2024-01-25T12:02:13;101548.16;;;11.58;79.68
2339;BME280;1180;51.438;6.978;2024-01-25T12:04:39;101544.09;;;11.52;80.07
2339;BME280;1180;51.438;6.978;2024-01-25T12:07:04;101537.03;;;11.57;80.38
2339;BME280;1180;51.438;6.978;2024-01-25T12:09:30;101520.91;;;11.53;80.27
2339;BME280;1180;51.438;6.978;2024-01-25T12:11:55;101509.09;;;11.49;80.62
2339;BME280;1180;51.438;6.978;2024-01-25T12:14:20;101505.47;;;11.53;80.73
2339;BME280;1180;51.438;6.978;2024-01-25T12:16:46;101510.50;;;11.56;80.66
2339;BME280;1180;51.438;6.978;2024-01-25T12:19:11;101504.59;;;11.54;80.33
2339;BME280;1180;51.438;6.978;2024-01-25T12:21:37;101515.19;;;11.47;79.98
2339;BME280;1180;51.438;6.978;2024-01-25T12:24:02;101510.16;;;11.64;79.58
2339;BME280;1180;51.438;6.978;2024-01-25T12:26:28;101499.16;;;11.61;79.26
2339;BME280;1180;51.438;6.978;2024-01-25T12:28:53;101503.34;;;11.63;79.75
2339;BME280;1180;51.438;6.978;2024-01-25T12:31:19;101494.50;;;11.69;79.90
2339;BME280;1180;51.438;6.978;2024-01-25T12:33:44;101492.31;;;11.61;79.21
2339;BME280;1180;51.438;6.978;2024-01-25T12:36:10;101494.75;;;11.64;79.68
2339;BME280;1180;51.438;6.978;2024-01-25T12:38:35;101511.97;;;11.62;79.75
2339;BME280;1180;51.438;6.978;2024-01-25T12:41:00;101513.63;;;11.63;79.84
2339;BME280;1180;51.438;6.978;2024-01-25T12:43:26;101509.50;;;11.59;79.69
2339;BME280;1180;51.438;6.978;2024-01-25T12:45:52;101511.31;;;11.57;79.96
2339;BME280;1180;51.438;6.978;2024-01-25T12:48:17;101505.09;;;11.42;80.41
2339;BME280;1180;51.438;6.978;2024-01-25T12:50:43;101512.16;;;11.37;80.65
2339;BME280;1180;51.438;6.978;2024-01-25T12:53:10;101512.13;;;11.38;81.02
2339;BME280;1180;51.438;6.978;2024-01-25T12:55:36;101515.31;;;11.44;81.15
2339;BME280;1180;51.438;6.978;2024-01-25T12:58:02;101511.66;;;11.49;80.96
2339;BME280;1180;51.438;6.978;2024-01-25T13:00:28;101501.28;;;11.51;80.91
2339;BME280;1180;51.438;6.978;2024-01-25T13:02:54;101496.53;;;11.62;80.82
2339;BME280;1180;51.438;6.978;2024-01-25T13:05:21;101496.78;;;11.56;80.93
2339;BME280;1180;51.438;6.978;2024-01-25T13:07:47;101489.22;;;11.53;81.42